sensor_id;sensor_type;location;lat;lon;timestamp;temperature;humidity
17146;DHT22;8688;54.444;18.444;2023-08-06T00:00:09;15.50;99.90
17146;DHT22;8688;54.444;18.444;2023-08-06T00:02:37;15.40;99.90
17146;DHT22;8688;54.444;18.444;2023-08-06T00:05:08;15.40;99.90
17146;DHT22;8688;54.444;18.444;2023-08-06T00:07:37;15.40;99.90
17146;DHT22;8688;54.444;18.444;2023-08-06T00:10:09;15.40;99.90
17146;DHT22;8688;54.444;18.444;2023-08-06T00:12:41;15.30;99.90
17146;DHT22;8688;54.444;18.444;2023-08-06T00:15:12;15.30;99.90
17146;DHT22;8688;54.444;18.444;2023-08-06T00:17:41;15.30;99.90
17146;DHT22;8688;54.444;18.444;2023-08-06T00:20:10;15.20;99.90
17146;DHT22;8688;54.444;18.444;2023-08-06T00:22:38;15.20;99.90
17146;DHT22;8688;54.444;18.444;2023-08-06T00:25:07;15.20;99.90
17146;DHT22;8688;54.444;18.444;2023-08-06T00:27:40;15.20;99.90
17146;DHT22;8688;54.444;18.444;2023-08-06T00:30:11;15.20;99.90
17146;DHT22;8688;54.444;18.444;2023-08-06T00:32:39;15.20;99.90
17146;DHT22;8688;54.444;18.444;2023-08-06T00:35:09;15.20;99.90
17146;DHT22;8688;54.444;18.444;2023-08-06T00:37:39;15.30;99.90
17146;DHT22;8688;54.444;18.444;2023-08-06T00:40:13;15.30;99.90
17146;DHT22;8688;54.444;18.444;2023-08-06T00:42:45;15.30;99.90
17146;DHT22;8688;54.444;18.444;2023-08-06T00:45:16;15.30;99.90
17146;DHT22;8688;54.444;18.444;2023-08-06T00:47:45;15.30;99.90
17146;DHT22;8688;54.444;18.444;2023-08-06T00:50:16;15.30;99.90
17146;DHT22;8688;54.444;18.444;2023-08-06T00:52:50;15.30;99.90
17146;DHT22;8688;54.444;18.444;2023-08-06T00:55:20;15.30;99.90
17146;DHT22;8688;54.444;18.444;2023-08-06T00:57:49;15.30;99.90
17146;DHT22;8688;54.444;18.444;2023-08-06T01:00:22;15.30;99.90
17146;DHT22;8688;54.444;18.444;2023-08-06T01:02:54;15.30;99.90
17146;DHT22;8688;54.444;18.444;2023-08-06T01:05:23;15.30;99.90
17146;DHT22;8688;54.444;18.444;2023-08-06T01:08:08;15.30;99.90
17146;DHT22;8688;54.444;18.444;2023-08-06T01:10:51;15.40;99.90
17146;DHT22;8688;54.444;18.444;2023-08-06T01:13:42;15.40;99.90
17146;DHT22;8688;54.444;18.444;2023-08-06T01:16:18;15.40;99.90
17146;DHT22;8688;54.444;18.444;2023-08-06T01:18:48;15.40;99.90
17146;DHT22;8688;54.444;18.444;2023-08-06T01:21:18;15.40;99.90
17146;DHT22;8688;54.444;18.444;2023-08-06T01:23:50;15.50;99.90
17146;DHT22;8688;54.444;18.444;2023-08-06T01:26:30;15.50;99.90
17146;DHT22;8688;54.444;18.444;2023-08-06T01:29:08;15.50;99.90
17146;DHT22;8688;54.444;18.444;2023-08-06T01:31:40;15.50;99.90
17146;DHT22;8688;54.444;18.444;2023-08-06T01:34:16;15.50;99.90
17146;DHT22;8688;54.444;18.444;2023-08-06T01:36:49;15.40;99.90
17146;DHT22;8688;54.444;18.444;2023-08-06T01:39:21;15.40;99.90
17146;DHT22;8688;54.444;18.444;2023-08-06T01:41:53;15.40;99.90
17146;DHT22;8688;54.444;18.444;2023-08-06T01:44:23;15.40;99.90
17146;DHT22;8688;54.444;18.444;2023-08-06T01:46:53;15.40;99.90
17146;DHT22;8688;54.444;18.444;2023-08-06T01:49:22;15.40;99.90
17146;DHT22;8688;54.444;18.444;2023-08-06T01:51:53;15.30;99.90
17146;DHT22;8688;54.444;18.444;2023-08-06T01:54:24;15.30;99.90
17146;DHT22;8688;54.444;18.444;2023-08-06T01:56:55;15.20;99.90
17146;DHT22;8688;54.444;18.444;2023-08-06T01:59:24;15.20;99.90
17146;DHT22;8688;54.444;18.444;2023-08-06T02:01:53;15.20;99.90
17146;DHT22;8688;54.444;18.444;2023-08-06T02:04:21;15.20;99.90
17146;DHT22;8688;54.444;18.444;2023-08-06T02:06:54;15.20;99.90
17146;DHT22;8688;54.444;18.444;2023-08-06T02:09:25;15.10;99.90
17146;DHT22;8688;54.444;18.444;2023-08-06T02:11:55;15.20;99.90
17146;DHT22;8688;54.444;18.444;2023-08-06T02:14:23;15.10;99.90
17146;DHT22;8688;54.444;18.444;2023-08-06T02:16:52;15.10;99.90
17146;DHT22;8688;54.444;18.444;2023-08-06T02:19:21;15.10;99.90
17146;DHT22;8688;54.444;18.444;2023-08-06T02:21:49;15.10;99.90
17146;DHT22;8688;54.444;18.444;2023-08-06T02:24:20;15.10;99.90
17146;DHT22;8688;54.444;18.444;2023-08-06T02:26:51;15.10;99.90
17146;DHT22;8688;54.444;18.444;2023-08-06T02:29:26;15.10;99.90
17146;DHT22;8688;54.444;18.444;2023-08-06T02:32:00;15.10;99.90
17146;DHT22;8688;54.444;18.444;2023-08-06T02:34:29;15.10;99.90
17146;DHT22;8688;54.444;18.444;2023-08-06T02:36:58;15.20;99.90
17146;DHT22;8688;54.444;18.444;2023-08-06T02:39:35;15.20;99.90
17146;DHT22;8688;54.444;18.444;2023-08-06T02:42:10;15.20;99.90
17146;DHT22;8688;54.444;18.444;2023-08-06T02:44:40;15.20;99.90
17146;DHT22;8688;54.444;18.444;2023-08-06T02:47:12;15.20;99.90
17146;DHT22;8688;54.444;18.444;2023-08-06T02:49:41;15.20;99.90
17146;DHT22;8688;54.444;18.444;2023-08-06T02:52:10;15.20;99.90
17146;DHT22;8688;54.444;18.444;2023-08-06T02:54:48;15.30;99.90
17146;DHT22;8688;54.444;18.444;2023-08-06T02:57:22;15.30;99.90
17146;DHT22;8688;54.444;18.444;2023-08-06T02:59:56;15.30;99.90
17146;DHT22;8688;54.444;18.444;2023-08-06T03:02:28;15.30;99.90
17146;DHT22;8688;54.444;18.444;2023-08-06T03:05:05;15.40;99.90
17146;DHT22;8688;54.444;18.444;2023-08-06T03:07:38;15.40;99.90
17146;DHT22;8688;54.444;18.444;2023-08-06T03:10:14;15.40;99.90
17146;DHT22;8688;54.444;18.444;2023-08-06T03:12:49;15.50;99.90
17146;DHT22;8688;54.444;18.444;2023-08-06T03:15:22;15.50;99.90
17146;DHT22;8688;54.444;18.444;2023-08-06T03:17:51;15.60;99.90
17146;DHT22;8688;54.444;18.444;2023-08-06T03:20:30;15.60;99.90
17146;DHT22;8688;54.444;18.444;2023-08-06T03:22:59;15.60;99.90
17146;DHT22;8688;54.444;18.444;2023-08-06T03:25:34;15.70;99.90
17146;DHT22;8688;54.444;18.444;2023-08-06T03:28:13;15.70;99.90
17146;DHT22;8688;54.444;18.444;2023-08-06T03:31:00;15.80;99.90
17146;DHT22;8688;54.444;18.444;2023-08-06T03:33:28;15.80;99.90
17146;DHT22;8688;54.444;18.444;2023-08-06T03:36:01;15.80;99.90
17146;DHT22;8688;54.444;18.444;2023-08-06T03:38:32;15.90;99.90
17146;DHT22;8688;54.444;18.444;2023-08-06T03:41:07;16.00;99.90
17146;DHT22;8688;54.444;18.444;2023-08-06T03:43:40;16.00;99.90
17146;DHT22;8688;54.444;18.444;2023-08-06T03:46:09;16.00;99.90
17146;DHT22;8688;54.444;18.444;2023-08-06T03:48:40;16.10;99.90
17146;DHT22;8688;54.444;18.444;2023-08-06T03:51:12;16.10;99.90
17146;DHT22;8688;54.444;18.444;2023-08-06T03:53:44;16.20;99.90
17146;DHT22;8688;54.444;18.444;2023-08-06T03:56:17;16.20;99.90
17146;DHT22;8688;54.444;18.444;2023-08-06T03:58:47;16.30;99.90
17146;DHT22;8688;54.444;18.444;2023-08-06T04:01:21;16.30;99.90
17146;DHT22;8688;54.444;18.444;2023-08-06T04:03:57;16.30;99.90
17146;DHT22;8688;54.444;18.444;2023-08-06T04:06:28;16.40;99.90
17146;DHT22;8688;54.444;18.444;2023-08-06T04:09:00;16.30;99.90
17146;DHT22;8688;54.444;18.444;2023-08-06T04:11:33;16.40;99.90
17146;DHT22;8688;54.444;18.444;2023-08-06T04:14:04;16.40;99.90
17146;DHT22;8688;54.444;18.444;2023-08-06T04:16:34;16.30;99.90
17146;DHT22;8688;54.444;18.444;2023-08-06T04:19:06;16.40;99.90
17146;DHT22;8688;54.444;18.444;2023-08-06T04:21:42;16.40;99.90
17146;DHT22;8688;54.444;18.444;2023-08-06T04:24:39;16.40;99.90
17146;DHT22;8688;54.444;18.444;2023-08-06T04:27:14;16.40;99.90
17146;DHT22;8688;54.444;18.444;2023-08-06T04:29:44;16.40;99.90
17146;DHT22;8688;54.444;18.444;2023-08-06T04:32:14;16.30;99.90
17146;DHT22;8688;54.444;18.444;2023-08-06T04:34:50;16.40;99.90
17146;DHT22;8688;54.444;18.444;2023-08-06T04:37:19;16.40;99.90
17146;DHT22;8688;54.444;18.444;2023-08-06T04:39:48;16.30;99.90
17146;DHT22;8688;54.444;18.444;2023-08-06T04:42:19;16.40;99.90
17146;DHT22;8688;54.444;18.444;2023-08-06T04:45:01;16.40;99.90
17146;DHT22;8688;54.444;18.444;2023-08-06T04:47:31;16.40;99.90
17146;DHT22;8688;54.444;18.444;2023-08-06T04:50:06;16.40;99.90
17146;DHT22;8688;54.444;18.444;2023-08-06T04:52:39;16.40;99.90
17146;DHT22;8688;54.444;18.444;2023-08-06T04:55:08;16.40;99.90
17146;DHT22;8688;54.444;18.444;2023-08-06T04:57:42;16.50;99.90
17146;DHT22;8688;54.444;18.444;2023-08-06T05:00:26;16.50;99.90
17146;DHT22;8688;54.444;18.444;2023-08-06T05:02:56;16.50;99.90
17146;DHT22;8688;54.444;18.444;2023-08-06T05:05:30;16.50;99.90
17146;DHT22;8688;54.444;18.444;2023-08-06T05:07:59;16.50;99.90
17146;DHT22;8688;54.444;18.444;2023-08-06T05:10:30;16.60;99.90
17146;DHT22;8688;54.444;18.444;2023-08-06T05:13:09;16.60;99.90
17146;DHT22;8688;54.444;18.444;2023-08-06T05:15:43;16.60;99.90
17146;DHT22;8688;54.444;18.444;2023-08-06T05:18:20;16.60;99.90
17146;DHT22;8688;54.444;18.444;2023-08-06T05:20:50;16.70;99.90
17146;DHT22;8688;54.444;18.444;2023-08-06T05:23:22;16.70;99.90
17146;DHT22;8688;54.444;18.444;2023-08-06T05:26:10;16.70;99.90
17146;DHT22;8688;54.444;18.444;2023-08-06T05:28:43;16.80;99.90
17146;DHT22;8688;54.444;18.444;2023-08-06T05:31:13;16.80;99.90
17146;DHT22;8688;54.444;18.444;2023-08-06T05:33:42;16.80;99.90
17146;DHT22;8688;54.444;18.444;2023-08-06T05:36:14;16.80;99.90
17146;DHT22;8688;54.444;18.444;2023-08-06T05:38:44;16.80;99.90
17146;DHT22;8688;54.444;18.444;2023-08-06T05:41:16;16.90;99.90
17146;DHT22;8688;54.444;18.444;2023-08-06T05:43:48;17.00;99.90
17146;DHT22;8688;54.444;18.444;2023-08-06T05:46:17;17.00;99.90
17146;DHT22;8688;54.444;18.444;2023-08-06T05:48:48;17.00;99.90
17146;DHT22;8688;54.444;18.444;2023-08-06T05:51:20;17.00;99.90
17146;DHT22;8688;54.444;18.444;2023-08-06T05:53:49;17.10;99.90
17146;DHT22;8688;54.444;18.444;2023-08-06T05:56:21;17.10;99.90
17146;DHT22;8688;54.444;18.444;2023-08-06T05:58:58;17.10;99.90
17146;DHT22;8688;54.444;18.444;2023-08-06T06:01:27;17.20;99.90
17146;DHT22;8688;54.444;18.444;2023-08-06T06:04:07;17.20;99.90
17146;DHT22;8688;54.444;18.444;2023-08-06T06:06:41;17.20;99.90
17146;DHT22;8688;54.444;18.444;2023-08-06T06:09:11;17.30;99.90
17146;DHT22;8688;54.444;18.444;2023-08-06T06:11:40;17.30;99.90
17146;DHT22;8688;54.444;18.444;2023-08-06T06:14:18;17.30;99.90
17146;DHT22;8688;54.444;18.444;2023-08-06T06:16:54;17.30;99.90
17146;DHT22;8688;54.444;18.444;2023-08-06T06:19:30;17.30;99.90
17146;DHT22;8688;54.444;18.444;2023-08-06T06:21:59;17.30;99.90
17146;DHT22;8688;54.444;18.444;2023-08-06T06:24:31;17.30;99.90
17146;DHT22;8688;54.444;18.444;2023-08-06T06:27:04;17.30;99.90
17146;DHT22;8688;54.444;18.444;2023-08-06T06:29:39;17.30;99.90
17146;DHT22;8688;54.444;18.444;2023-08-06T06:32:17;17.30;99.90
17146;DHT22;8688;54.444;18.444;2023-08-06T06:34:51;17.30;99.90
17146;DHT22;8688;54.444;18.444;2023-08-06T06:37:20;17.30;99.90
17146;DHT22;8688;54.444;18.444;2023-08-06T06:39:49;17.30;99.90
17146;DHT22;8688;54.444;18.444;2023-08-06T06:42:19;17.40;99.90
17146;DHT22;8688;54.444;18.444;2023-08-06T06:44:52;17.40;99.90
17146;DHT22;8688;54.444;18.444;2023-08-06T06:47:22;17.40;99.90
17146;DHT22;8688;54.444;18.444;2023-08-06T06:49:51;17.40;99.90
17146;DHT22;8688;54.444;18.444;2023-08-06T06:52:20;17.50;99.90
17146;DHT22;8688;54.444;18.444;2023-08-06T06:54:50;17.50;99.90
17146;DHT22;8688;54.444;18.444;2023-08-06T06:57:22;17.50;99.90
17146;DHT22;8688;54.444;18.444;2023-08-06T06:59:54;17.60;99.90
17146;DHT22;8688;54.444;18.444;2023-08-06T07:02:24;17.60;99.90
17146;DHT22;8688;54.444;18.444;2023-08-06T07:04:53;17.70;99.90
17146;DHT22;8688;54.444;18.444;2023-08-06T07:07:22;17.70;99.90
17146;DHT22;8688;54.444;18.444;2023-08-06T07:09:51;17.80;99.90
17146;DHT22;8688;54.444;18.444;2023-08-06T07:12:21;17.80;99.90
17146;DHT22;8688;54.444;18.444;2023-08-06T07:14:56;17.80;99.90
17146;DHT22;8688;54.444;18.444;2023-08-06T07:17:28;17.90;99.90
17146;DHT22;8688;54.444;18.444;2023-08-06T07:20:04;17.90;99.90
17146;DHT22;8688;54.444;18.444;2023-08-06T07:22:36;17.90;99.90
17146;DHT22;8688;54.444;18.444;2023-08-06T07:25:12;18.00;99.90
17146;DHT22;8688;54.444;18.444;2023-08-06T07:27:44;18.00;99.90
17146;DHT22;8688;54.444;18.444;2023-08-06T07:30:16;18.00;99.90
17146;DHT22;8688;54.444;18.444;2023-08-06T07:32:48;18.00;99.90
17146;DHT22;8688;54.444;18.444;2023-08-06T07:35:19;18.10;99.90
17146;DHT22;8688;54.444;18.444;2023-08-06T07:37:48;18.10;99.90
17146;DHT22;8688;54.444;18.444;2023-08-06T07:40:18;18.20;99.90
17146;DHT22;8688;54.444;18.444;2023-08-06T07:42:58;18.20;99.90
17146;DHT22;8688;54.444;18.444;2023-08-06T07:45:36;18.30;99.90
17146;DHT22;8688;54.444;18.444;2023-08-06T07:48:06;18.30;99.90
17146;DHT22;8688;54.444;18.444;2023-08-06T07:50:52;18.40;99.90
17146;DHT22;8688;54.444;18.444;2023-08-06T07:53:29;18.40;99.90
17146;DHT22;8688;54.444;18.444;2023-08-06T07:56:05;18.40;99.90
17146;DHT22;8688;54.444;18.444;2023-08-06T07:58:35;18.40;99.90
17146;DHT22;8688;54.444;18.444;2023-08-06T08:01:12;18.40;99.90
17146;DHT22;8688;54.444;18.444;2023-08-06T08:03:44;18.50;99.90
17146;DHT22;8688;54.444;18.444;2023-08-06T08:06:14;18.50;99.90
17146;DHT22;8688;54.444;18.444;2023-08-06T08:08:43;18.50;99.90
17146;DHT22;8688;54.444;18.444;2023-08-06T08:11:12;18.50;99.90
17146;DHT22;8688;54.444;18.444;2023-08-06T08:13:41;18.60;99.90
17146;DHT22;8688;54.444;18.444;2023-08-06T08:16:12;18.60;99.90
17146;DHT22;8688;54.444;18.444;2023-08-06T08:18:42;18.60;99.90
17146;DHT22;8688;54.444;18.444;2023-08-06T08:21:15;18.70;99.90
17146;DHT22;8688;54.444;18.444;2023-08-06T08:23:44;18.70;99.90
17146;DHT22;8688;54.444;18.444;2023-08-06T08:26:16;18.70;99.90
17146;DHT22;8688;54.444;18.444;2023-08-06T08:28:46;18.70;99.90
17146;DHT22;8688;54.444;18.444;2023-08-06T08:31:21;18.70;99.90
17146;DHT22;8688;54.444;18.444;2023-08-06T08:33:52;18.70;99.90
17146;DHT22;8688;54.444;18.444;2023-08-06T08:36:25;18.80;99.90
17146;DHT22;8688;54.444;18.444;2023-08-06T08:38:54;18.80;99.90
17146;DHT22;8688;54.444;18.444;2023-08-06T08:41:23;18.80;99.90
17146;DHT22;8688;54.444;18.444;2023-08-06T08:43:53;18.90;99.90
17146;DHT22;8688;54.444;18.444;2023-08-06T08:46:30;18.80;99.90
17146;DHT22;8688;54.444;18.444;2023-08-06T08:49:03;18.80;99.90
17146;DHT22;8688;54.444;18.444;2023-08-06T08:51:37;18.80;99.90
17146;DHT22;8688;54.444;18.444;2023-08-06T08:54:16;18.90;99.90
17146;DHT22;8688;54.444;18.444;2023-08-06T08:56:45;18.90;99.90
17146;DHT22;8688;54.444;18.444;2023-08-06T08:59:17;18.90;99.90
17146;DHT22;8688;54.444;18.444;2023-08-06T09:01:54;18.90;99.90
17146;DHT22;8688;54.444;18.444;2023-08-06T09:04:24;18.90;99.90
17146;DHT22;8688;54.444;18.444;2023-08-06T09:06:59;18.90;99.90
17146;DHT22;8688;54.444;18.444;2023-08-06T09:09:31;18.90;99.90
17146;DHT22;8688;54.444;18.444;2023-08-06T09:12:14;18.90;99.90
17146;DHT22;8688;54.444;18.444;2023-08-06T09:14:47;18.90;99.90
17146;DHT22;8688;54.444;18.444;2023-08-06T09:17:17;18.90;99.90
17146;DHT22;8688;54.444;18.444;2023-08-06T09:19:47;18.90;99.90
17146;DHT22;8688;54.444;18.444;2023-08-06T09:22:19;18.90;99.90
17146;DHT22;8688;54.444;18.444;2023-08-06T09:24:49;18.90;99.90
17146;DHT22;8688;54.444;18.444;2023-08-06T09:27:25;19.00;99.90
17146;DHT22;8688;54.444;18.444;2023-08-06T09:29:55;19.00;99.90
17146;DHT22;8688;54.444;18.444;2023-08-06T09:32:28;19.00;99.90
17146;DHT22;8688;54.444;18.444;2023-08-06T09:34:59;19.00;99.90
17146;DHT22;8688;54.444;18.444;2023-08-06T09:37:37;19.00;99.90
17146;DHT22;8688;54.444;18.444;2023-08-06T09:40:27;19.00;99.90
17146;DHT22;8688;54.444;18.444;2023-08-06T09:43:00;19.10;99.90
17146;DHT22;8688;54.444;18.444;2023-08-06T09:45:33;19.20;99.90
17146;DHT22;8688;54.444;18.444;2023-08-06T09:48:08;19.30;99.90
17146;DHT22;8688;54.444;18.444;2023-08-06T09:50:38;19.40;99.90
17146;DHT22;8688;54.444;18.444;2023-08-06T09:53:11;19.40;99.90
17146;DHT22;8688;54.444;18.444;2023-08-06T09:55:41;19.30;99.90
17146;DHT22;8688;54.444;18.444;2023-08-06T10:01:39;19.40;99.90
17146;DHT22;8688;54.444;18.444;2023-08-06T10:04:15;19.30;99.90
17146;DHT22;8688;54.444;18.444;2023-08-06T10:06:54;19.30;99.90
17146;DHT22;8688;54.444;18.444;2023-08-06T10:09:30;19.30;99.90
17146;DHT22;8688;54.444;18.444;2023-08-06T10:12:00;19.30;99.90
17146;DHT22;8688;54.444;18.444;2023-08-06T10:14:37;19.30;99.90
17146;DHT22;8688;54.444;18.444;2023-08-06T10:17:06;19.30;99.90
17146;DHT22;8688;54.444;18.444;2023-08-06T10:19:37;19.30;99.90
17146;DHT22;8688;54.444;18.444;2023-08-06T10:22:19;19.30;99.90
17146;DHT22;8688;54.444;18.444;2023-08-06T10:24:53;19.30;99.90
17146;DHT22;8688;54.444;18.444;2023-08-06T10:27:27;19.30;99.90
17146;DHT22;8688;54.444;18.444;2023-08-06T10:32:48;19.30;99.90
17146;DHT22;8688;54.444;18.444;2023-08-06T10:35:34;19.30;99.90
17146;DHT22;8688;54.444;18.444;2023-08-06T10:38:16;19.30;99.90
17146;DHT22;8688;54.444;18.444;2023-08-06T10:40:50;19.40;99.90
17146;DHT22;8688;54.444;18.444;2023-08-06T10:43:26;19.40;99.90
17146;DHT22;8688;54.444;18.444;2023-08-06T10:45:57;19.40;99.90
17146;DHT22;8688;54.444;18.444;2023-08-06T10:48:30;19.40;99.90
17146;DHT22;8688;54.444;18.444;2023-08-06T10:51:07;19.40;99.90
17146;DHT22;8688;54.444;18.444;2023-08-06T10:53:49;19.40;99.90
17146;DHT22;8688;54.444;18.444;2023-08-06T10:56:26;19.40;99.90
17146;DHT22;8688;54.444;18.444;2023-08-06T10:58:56;19.50;99.90
17146;DHT22;8688;54.444;18.444;2023-08-06T11:01:30;19.50;99.90
17146;DHT22;8688;54.444;18.444;2023-08-06T11:04:15;19.50;99.90
17146;DHT22;8688;54.444;18.444;2023-08-06T11:06:52;19.50;99.90
17146;DHT22;8688;54.444;18.444;2023-08-06T11:09:22;19.60;99.90
17146;DHT22;8688;54.444;18.444;2023-08-06T11:11:53;19.70;99.90
17146;DHT22;8688;54.444;18.444;2023-08-06T11:14:30;19.80;99.90
17146;DHT22;8688;54.444;18.444;2023-08-06T11:17:02;19.90;99.90
17146;DHT22;8688;54.444;18.444;2023-08-06T11:19:38;20.10;99.90
17146;DHT22;8688;54.444;18.444;2023-08-06T11:22:15;20.40;99.90
17146;DHT22;8688;54.444;18.444;2023-08-06T11:24:47;20.60;99.90
17146;DHT22;8688;54.444;18.444;2023-08-06T11:27:29;20.70;99.90
17146;DHT22;8688;54.444;18.444;2023-08-06T11:30:07;20.80;99.90
17146;DHT22;8688;54.444;18.444;2023-08-06T11:32:47;20.90;99.90
17146;DHT22;8688;54.444;18.444;2023-08-06T11:35:21;21.00;99.90
17146;DHT22;8688;54.444;18.444;2023-08-06T11:37:57;21.00;99.90
17146;DHT22;8688;54.444;18.444;2023-08-06T11:40:36;21.00;99.90
17146;DHT22;8688;54.444;18.444;2023-08-06T11:43:17;21.00;99.90
17146;DHT22;8688;54.444;18.444;2023-08-06T11:45:54;21.10;99.90
17146;DHT22;8688;54.444;18.444;2023-08-06T11:48:27;21.20;99.90
17146;DHT22;8688;54.444;18.444;2023-08-06T11:51:00;21.20;99.90
17146;DHT22;8688;54.444;18.444;2023-08-06T11:53:37;21.10;99.90
17146;DHT22;8688;54.444;18.444;2023-08-06T11:56:12;20.90;99.90
17146;DHT22;8688;54.444;18.444;2023-08-06T11:58:50;20.90;99.90
17146;DHT22;8688;54.444;18.444;2023-08-06T12:01:25;21.00;99.90
17146;DHT22;8688;54.444;18.444;2023-08-06T12:04:02;21.00;99.90
17146;DHT22;8688;54.444;18.444;2023-08-06T12:06:42;21.00;99.90
17146;DHT22;8688;54.444;18.444;2023-08-06T12:09:26;21.00;99.90
17146;DHT22;8688;54.444;18.444;2023-08-06T12:12:03;21.20;99.90
17146;DHT22;8688;54.444;18.444;2023-08-06T12:14:36;21.40;99.90
17146;DHT22;8688;54.444;18.444;2023-08-06T12:17:11;21.60;99.90
17146;DHT22;8688;54.444;18.444;2023-08-06T12:19:44;21.70;99.90
17146;DHT22;8688;54.444;18.444;2023-08-06T12:22:21;21.80;99.90
17146;DHT22;8688;54.444;18.444;2023-08-06T12:24:55;21.70;99.90
17146;DHT22;8688;54.444;18.444;2023-08-06T12:27:28;21.70;99.90
17146;DHT22;8688;54.444;18.444;2023-08-06T12:29:58;21.80;99.90
17146;DHT22;8688;54.444;18.444;2023-08-06T12:32:28;21.90;99.90
17146;DHT22;8688;54.444;18.444;2023-08-06T12:35:04;22.00;99.90
17146;DHT22;8688;54.444;18.444;2023-08-06T12:37:36;21.90;99.90
17146;DHT22;8688;54.444;18.444;2023-08-06T12:40:16;22.00;99.90
17146;DHT22;8688;54.444;18.444;2023-08-06T12:42:50;22.10;99.90
17146;DHT22;8688;54.444;18.444;2023-08-06T12:45:23;22.30;99.90
17146;DHT22;8688;54.444;18.444;2023-08-06T12:48:07;22.30;99.90
17146;DHT22;8688;54.444;18.444;2023-08-06T12:50:37;22.40;99.90
17146;DHT22;8688;54.444;18.444;2023-08-06T12:53:17;22.60;99.90
17146;DHT22;8688;54.444;18.444;2023-08-06T12:55:58;22.60;99.90
17146;DHT22;8688;54.444;18.444;2023-08-06T12:58:31;22.50;99.90
17146;DHT22;8688;54.444;18.444;2023-08-06T13:01:08;22.50;99.90
17146;DHT22;8688;54.444;18.444;2023-08-06T13:03:45;22.70;99.90
17146;DHT22;8688;54.444;18.444;2023-08-06T13:06:19;22.90;99.90
17146;DHT22;8688;54.444;18.444;2023-08-06T13:08:55;23.10;99.90
17146;DHT22;8688;54.444;18.444;2023-08-06T13:11:34;23.40;99.90
17146;DHT22;8688;54.444;18.444;2023-08-06T13:14:08;23.40;99.90
17146;DHT22;8688;54.444;18.444;2023-08-06T13:16:40;23.50;99.90
17146;DHT22;8688;54.444;18.444;2023-08-06T13:19:16;23.40;99.90
17146;DHT22;8688;54.444;18.444;2023-08-06T13:22:08;23.40;99.90
17146;DHT22;8688;54.444;18.444;2023-08-06T13:24:52;23.60;99.90
17146;DHT22;8688;54.444;18.444;2023-08-06T13:27:30;23.50;99.90
17146;DHT22;8688;54.444;18.444;2023-08-06T13:30:01;23.40;99.90
17146;DHT22;8688;54.444;18.444;2023-08-06T13:32:37;23.30;99.90
17146;DHT22;8688;54.444;18.444;2023-08-06T13:35:16;23.30;99.90
17146;DHT22;8688;54.444;18.444;2023-08-06T13:37:50;23.40;99.90
17146;DHT22;8688;54.444;18.444;2023-08-06T13:40:22;23.50;99.90
17146;DHT22;8688;54.444;18.444;2023-08-06T13:42:56;23.50;99.90
17146;DHT22;8688;54.444;18.444;2023-08-06T13:45:29;23.90;99.90
17146;DHT22;8688;54.444;18.444;2023-08-06T13:48:09;24.10;99.90
17146;DHT22;8688;54.444;18.444;2023-08-06T13:50:41;24.20;57.50
17146;DHT22;8688;54.444;18.444;2023-08-06T13:53:12;24.20;99.90
17146;DHT22;8688;54.444;18.444;2023-08-06T13:55:46;24.10;99.90
17146;DHT22;8688;54.444;18.444;2023-08-06T13:58:22;24.10;93.20
17146;DHT22;8688;54.444;18.444;2023-08-06T14:00:53;24.30;99.90
17146;DHT22;8688;54.444;18.444;2023-08-06T14:03:29;24.60;99.90
17146;DHT22;8688;54.444;18.444;2023-08-06T14:06:04;24.60;19.10
17146;DHT22;8688;54.444;18.444;2023-08-06T14:08:36;24.60;1.00
17146;DHT22;8688;54.444;18.444;2023-08-06T14:11:14;24.70;46.60
17146;DHT22;8688;54.444;18.444;2023-08-06T14:13:49;24.80;8.00
17146;DHT22;8688;54.444;18.444;2023-08-06T14:16:25;24.70;21.50
17146;DHT22;8688;54.444;18.444;2023-08-06T14:18:59;24.80;22.60
17146;DHT22;8688;54.444;18.444;2023-08-06T14:21:34;24.60;52.90
17146;DHT22;8688;54.444;18.444;2023-08-06T14:24:10;24.50;42.90
17146;DHT22;8688;54.444;18.444;2023-08-06T14:26:41;24.40;84.60
17146;DHT22;8688;54.444;18.444;2023-08-06T14:29:17;24.30;87.60
17146;DHT22;8688;54.444;18.444;2023-08-06T14:31:46;24.00;99.90
17146;DHT22;8688;54.444;18.444;2023-08-06T14:34:20;23.80;99.90
17146;DHT22;8688;54.444;18.444;2023-08-06T14:36:56;23.70;99.90
17146;DHT22;8688;54.444;18.444;2023-08-06T14:39:30;23.70;99.90
17146;DHT22;8688;54.444;18.444;2023-08-06T14:42:05;23.50;99.90
17146;DHT22;8688;54.444;18.444;2023-08-06T14:44:37;23.30;99.90
17146;DHT22;8688;54.444;18.444;2023-08-06T14:47:09;23.20;99.90
17146;DHT22;8688;54.444;18.444;2023-08-06T14:49:43;23.10;99.90
17146;DHT22;8688;54.444;18.444;2023-08-06T14:52:19;22.90;99.90
17146;DHT22;8688;54.444;18.444;2023-08-06T14:54:56;22.70;99.90
17146;DHT22;8688;54.444;18.444;2023-08-06T14:57:31;22.60;99.90
17146;DHT22;8688;54.444;18.444;2023-08-06T15:00:05;22.50;99.90
17146;DHT22;8688;54.444;18.444;2023-08-06T15:02:48;22.40;99.90
17146;DHT22;8688;54.444;18.444;2023-08-06T15:05:26;22.30;99.90
17146;DHT22;8688;54.444;18.444;2023-08-06T15:07:56;22.20;99.90
17146;DHT22;8688;54.444;18.444;2023-08-06T15:10:31;22.00;99.90
17146;DHT22;8688;54.444;18.444;2023-08-06T15:13:08;21.90;99.90
17146;DHT22;8688;54.444;18.444;2023-08-06T15:15:40;21.80;99.90
17146;DHT22;8688;54.444;18.444;2023-08-06T15:18:12;21.80;99.90
17146;DHT22;8688;54.444;18.444;2023-08-06T15:20:49;21.70;99.90
17146;DHT22;8688;54.444;18.444;2023-08-06T15:23:32;21.70;99.90
17146;DHT22;8688;54.444;18.444;2023-08-06T15:26:12;21.80;99.90
17146;DHT22;8688;54.444;18.444;2023-08-06T15:28:50;21.90;99.90
17146;DHT22;8688;54.444;18.444;2023-08-06T15:31:36;21.90;99.90
17146;DHT22;8688;54.444;18.444;2023-08-06T15:34:11;22.00;99.90
17146;DHT22;8688;54.444;18.444;2023-08-06T15:36:58;22.10;99.90
17146;DHT22;8688;54.444;18.444;2023-08-06T15:39:30;22.10;99.90
17146;DHT22;8688;54.444;18.444;2023-08-06T15:42:06;22.10;99.90
17146;DHT22;8688;54.444;18.444;2023-08-06T15:44:39;22.10;99.90
17146;DHT22;8688;54.444;18.444;2023-08-06T15:47:16;22.10;99.90
17146;DHT22;8688;54.444;18.444;2023-08-06T15:49:46;22.00;99.90
17146;DHT22;8688;54.444;18.444;2023-08-06T15:52:15;21.90;99.90
17146;DHT22;8688;54.444;18.444;2023-08-06T15:54:45;21.80;99.90
17146;DHT22;8688;54.444;18.444;2023-08-06T15:57:19;21.70;99.90
17146;DHT22;8688;54.444;18.444;2023-08-06T15:59:52;21.70;99.90
17146;DHT22;8688;54.444;18.444;2023-08-06T16:02:23;21.60;99.90
17146;DHT22;8688;54.444;18.444;2023-08-06T16:04:58;21.60;99.90
17146;DHT22;8688;54.444;18.444;2023-08-06T16:07:30;21.50;99.90
17146;DHT22;8688;54.444;18.444;2023-08-06T16:10:00;21.50;99.90
17146;DHT22;8688;54.444;18.444;2023-08-06T16:12:29;21.50;99.90
17146;DHT22;8688;54.444;18.444;2023-08-06T16:14:59;21.40;99.90